Malvern, Arkansas
Current Conditions -  °F | °C
As of 6:53 PM on Saturday 20 Dec 2014 (Local Time) from KHOT Reporting Station
Overcast Overcast  
Wind Chill: 48°   Ceiling: 4100
Heat Index: 48°   Visibility: 10mi
Dew Point: 42°   Wind: 3mph
Humidity: 80%   Direction: 70°ENE
Pressure: 30.22"   Gusts: NA
Location:  34.36°N, 92.81°W
Report Text: KHOT 210053Z AUTO 07003KT 10SM OVC041 09/06 A3022 RMK AO2 SLP233 T00890056
Loading
Personal Weather Stations






























Interactive Weather Map New forecast layout! Learn more

10-Day Weather Forecast

Advertisements
Track Severe Weather on mobile